Time;durP1;ratioP1;P1;durP2;ratioP2;P2;SDS_P1;SDS_P2;PMS_P1;PMS_P2;Temp;Humidity;BMP_temperature;BMP_pressure;BME280_temperature;BME280_humidity;BME280_pressure;Samples;Min_cycle;Max_cycle;Signal;HPM_P1;HPM_P2
2022/09/10 00:01:43;;;;;;;4.47;1.83;;;14.90;99.90;;;;;;10477624;28;20220;-71
2022/09/10 00:06:44;;;;;;;3.57;1.70;;;14.90;99.90;;;;;;10472661;28;20756;-73
2022/09/10 00:11:45;;;;;;;4.00;1.83;;;14.90;99.90;;;;;;10476419;28;20211;-72
2022/09/10 00:16:46;;;;;;;5.00;1.70;;;14.90;99.90;;;;;;10472347;28;20212;-72
2022/09/10 00:21:50;;;;;;;4.67;2.10;;;14.90;99.90;;;;;;10475963;28;20218;-73
2022/09/10 00:26:51;;;;;;;5.20;1.97;;;14.80;99.90;;;;;;10464264;28;20219;-71
2022/09/10 00:31:52;;;;;;;8.63;2.17;;;14.80;99.90;;;;;;10475876;28;20555;-73
2022/09/10 00:36:52;;;;;;;3.80;1.93;;;14.90;99.90;;;;;;10472980;28;20268;-73
2022/09/10 00:41:54;;;;;;;3.50;1.90;;;15.00;99.90;;;;;;10474706;28;20632;-73
2022/09/10 00:46:55;;;;;;;3.23;1.93;;;15.10;99.90;;;;;;10468556;28;20228;-73
2022/09/10 00:51:56;;;;;;;5.53;2.10;;;15.10;99.90;;;;;;10464150;28;20218;-73
2022/09/10 00:57:03;;;;;;;8.60;2.13;;;15.20;99.90;;;;;;10474073;28;20312;-72
2022/09/10 01:02:07;;;;;;;5.73;2.00;;;15.20;99.90;;;;;;10473804;28;20774;-69
2022/09/10 01:07:10;;;;;;;6.43;2.10;;;15.20;99.90;;;;;;10470112;28;20680;-69
2022/09/10 01:12:18;;;;;;;5.33;2.30;;;15.30;99.90;;;;;;10474688;28;20215;-69
2022/09/10 01:17:48;;;;;;;4.83;2.10;;;15.30;99.90;;;;;;10478390;28;20220;-69
2022/09/10 01:23:05;;;;;;;4.87;1.97;;;15.40;99.90;;;;;;10472657;28;20223;-70
2022/09/10 01:28:12;;;;;;;4.50;2.00;;;15.30;99.90;;;;;;10476438;28;20712;-69
2022/09/10 01:33:24;;;;;;;3.97;2.03;;;15.30;99.90;;;;;;10471092;28;20212;-70
2022/09/10 01:38:31;;;;;;;4.07;2.10;;;15.20;99.90;;;;;;10475999;28;20213;-68
2022/09/10 01:43:32;;;;;;;3.67;1.80;;;15.10;99.90;;;;;;10457792;28;20247;-68
2022/09/10 01:48:58;;;;;;;3.00;1.87;;;15.10;99.90;;;;;;10481919;28;20226;-69
2022/09/10 01:53:59;;;;;;;3.57;2.00;;;15.10;99.90;;;;;;10483477;28;20295;-68
2022/09/10 01:59:08;;;;;;;7.47;1.80;;;15.10;99.90;;;;;;10478394;28;20654;-69
2022/09/10 02:04:13;;;;;;;4.10;1.90;;;15.10;99.90;;;;;;10476719;28;20220;-69
2022/09/10 02:09:17;;;;;;;2.67;1.73;;;15.00;99.90;;;;;;10481033;28;20231;-69
2022/09/10 02:14:24;;;;;;;4.23;1.80;;;14.90;99.90;;;;;;10474464;28;20639;-70
2022/09/10 02:19:26;;;;;;;3.77;1.70;;;14.80;99.90;;;;;;10482701;28;20220;-68
2022/09/10 02:24:26;;;;;;;4.67;1.70;;;14.70;99.90;;;;;;10481052;28;20221;-68
2022/09/10 02:29:27;;;;;;;4.27;1.43;;;14.70;99.90;;;;;;10476356;28;20648;-68
2022/09/10 02:34:29;;;;;;;3.03;1.50;;;14.80;99.90;;;;;;10473751;28;20650;-67
2022/09/10 02:39:30;;;;;;;3.07;1.50;;;14.80;99.90;;;;;;10481740;28;20222;-68
2022/09/10 02:44:30;;;;;;;3.30;1.57;;;14.80;99.90;;;;;;10480666;28;20523;-69
2022/09/10 02:49:33;;;;;;;5.53;1.53;;;14.80;99.90;;;;;;10471564;28;20231;-69
2022/09/10 02:54:34;;;;;;;2.60;1.60;;;14.80;99.90;;;;;;10487933;28;20670;-70
2022/09/10 02:59:34;;;;;;;1.93;1.50;;;14.80;99.90;;;;;;10473966;28;20259;-69
2022/09/10 03:04:35;;;;;;;2.60;1.57;;;14.70;99.90;;;;;;10479827;28;20584;-69
2022/09/10 03:09:35;;;;;;;3.33;1.47;;;14.80;99.90;;;;;;10472685;28;20317;-69
2022/09/10 03:14:36;;;;;;;5.50;1.60;;;14.90;99.90;;;;;;10478994;28;20356;-69
2022/09/10 03:19:38;;;;;;;2.87;1.50;;;15.00;99.90;;;;;;10488570;28;20297;-69
2022/09/10 03:24:39;;;;;;;3.77;1.80;;;15.00;99.90;;;;;;10479108;28;20227;-69
2022/09/10 03:29:39;;;;;;;4.77;1.80;;;15.00;99.90;;;;;;10472364;28;20646;-69
2022/09/10 03:34:40;;;;;;;5.17;1.80;;;15.10;99.90;;;;;;10475640;28;20220;-69
2022/09/10 03:39:40;;;;;;;4.80;2.10;;;15.10;99.90;;;;;;10471478;28;20275;-69
2022/09/10 03:44:41;;;;;;;2.40;1.80;;;15.10;99.90;;;;;;10477376;28;20219;-69
2022/09/10 03:49:42;;;;;;;4.63;1.97;;;15.10;99.90;;;;;;10477894;28;20223;-70
2022/09/10 03:54:44;;;;;;;3.83;2.03;;;15.10;99.90;;;;;;10472169;28;20286;-69
2022/09/10 03:59:44;;;;;;;4.50;1.80;;;15.10;99.90;;;;;;10476999;28;20227;-68
2022/09/10 04:04:46;;;;;;;3.70;2.00;;;15.20;99.90;;;;;;10471455;28;20645;-69
2022/09/10 04:09:46;;;;;;;3.20;2.10;;;15.20;99.90;;;;;;10470411;28;20584;-69
2022/09/10 04:14:47;;;;;;;7.70;2.27;;;15.20;99.90;;;;;;10476297;28;20215;-68
2022/09/10 04:19:48;;;;;;;3.10;2.00;;;15.20;99.90;;;;;;10478361;28;20587;-69
2022/09/10 04:24:48;;;;;;;5.83;2.30;;;15.20;99.90;;;;;;10465232;28;20208;-68
2022/09/10 04:29:49;;;;;;;2.50;2.27;;;15.20;99.90;;;;;;10471869;28;20247;-69
2022/09/10 04:34:50;;;;;;;4.90;2.50;;;15.20;99.90;;;;;;10475071;28;20261;-69
2022/09/10 04:39:50;;;;;;;5.47;2.23;;;15.10;99.90;;;;;;10472021;28;20212;-68
2022/09/10 04:44:51;;;;;;;3.37;2.10;;;15.10;99.90;;;;;;10474172;28;20702;-69
2022/09/10 04:49:52;;;;;;;4.77;2.20;;;15.20;99.90;;;;;;10471406;28;20310;-69
2022/09/10 04:54:52;;;;;;;6.93;2.50;;;15.10;99.90;;;;;;10471267;28;20208;-69
2022/09/10 04:59:53;;;;;;;5.77;2.47;;;15.20;99.90;;;;;;10471556;28;20266;-69
2022/09/10 05:04:53;;;;;;;5.67;2.97;;;15.10;99.90;;;;;;10473984;28;20223;-69
2022/09/10 05:09:54;;;;;;;5.53;2.57;;;15.10;99.90;;;;;;10468422;28;20235;-69
2022/09/10 05:14:55;;;;;;;5.70;2.63;;;15.10;99.90;;;;;;10471877;28;20240;-68
2022/09/10 05:19:55;;;;;;;5.67;2.50;;;15.10;99.90;;;;;;10476665;28;20215;-69
2022/09/10 05:24:56;;;;;;;5.37;2.37;;;15.10;99.90;;;;;;10468451;28;20214;-69
2022/09/10 05:29:57;;;;;;;4.67;2.33;;;15.20;99.90;;;;;;10473655;28;20228;-69
2022/09/10 05:34:57;;;;;;;7.87;2.80;;;15.20;99.90;;;;;;10467674;28;20230;-70
2022/09/10 05:39:58;;;;;;;5.40;2.60;;;15.30;99.90;;;;;;10487721;28;20222;-69
2022/09/10 05:44:59;;;;;;;4.43;2.30;;;15.40;99.90;;;;;;10472430;28;20212;-68
2022/09/10 05:49:59;;;;;;;6.73;2.50;;;15.60;99.90;;;;;;10475931;28;20220;-69
2022/09/10 05:55:00;;;;;;;6.70;2.20;;;15.60;99.90;;;;;;10471725;28;20226;-68
2022/09/10 06:00:07;;;;;;;7.57;2.23;;;15.70;99.90;;;;;;10473640;28;20228;-68
2022/09/10 06:05:08;;;;;;;10.23;2.53;;;15.60;99.90;;;;;;10475456;28;20215;-69
2022/09/10 06:10:08;;;;;;;6.00;2.73;;;15.60;99.90;;;;;;10479967;28;20210;-69
2022/09/10 06:15:09;;;;;;;6.13;2.20;;;15.60;99.90;;;;;;10477250;28;20179;-69
2022/09/10 06:20:11;;;;;;;8.93;2.47;;;15.50;99.90;;;;;;10476250;28;20195;-69
2022/09/10 06:25:14;;;;;;;7.43;3.07;;;15.50;99.90;;;;;;10477696;28;20188;-69
2022/09/10 06:30:15;;;;;;;3.93;2.97;;;15.50;99.90;;;;;;10480259;28;20207;-69
2022/09/10 06:35:16;;;;;;;4.87;2.80;;;15.50;99.90;;;;;;10483902;28;20176;-69
2022/09/10 06:40:17;;;;;;;5.10;2.70;;;15.40;99.90;;;;;;10478262;28;20195;-69
2022/09/10 06:45:18;;;;;;;4.57;2.50;;;15.40;99.90;;;;;;10475542;28;20180;-70
2022/09/10 06:50:18;;;;;;;3.13;2.60;;;15.50;99.90;;;;;;10474136;28;20575;-68
2022/09/10 06:55:19;;;;;;;5.27;2.13;;;15.80;99.90;;;;;;10474222;28;20226;-70
2022/09/10 07:00:19;;;;;;;4.53;2.47;;;16.00;99.90;;;;;;10480548;28;20314;-69
2022/09/10 07:05:20;;;;;;;3.67;2.60;;;16.00;99.90;;;;;;10477780;28;20710;-69
2022/09/10 07:10:21;;;;;;;3.73;3.23;;;15.90;99.90;;;;;;10473469;28;20305;-68
2022/09/10 07:15:22;;;;;;;4.43;2.60;;;15.90;99.90;;;;;;10478434;28;20597;-70
2022/09/10 07:20:24;;;;;;;3.93;2.67;;;15.80;99.90;;;;;;10473446;28;20203;-69
2022/09/10 07:25:25;;;;;;;5.13;2.47;;;15.90;99.90;;;;;;10479967;28;20227;-69
2022/09/10 07:30:28;;;;;;;2.60;2.30;;;16.10;99.90;;;;;;10494950;28;20234;-69
2022/09/10 07:35:29;;;;;;;3.10;2.20;;;16.40;99.90;;;;;;10472094;28;20223;-69
2022/09/10 07:40:31;;;;;;;7.10;2.17;;;16.60;99.90;;;;;;10471668;28;20215;-69
2022/09/10 07:45:32;;;;;;;5.80;1.97;;;16.80;99.90;;;;;;10470956;28;20769;-69
2022/09/10 07:50:34;;;;;;;5.83;2.10;;;16.90;99.90;;;;;;10474739;28;20230;-69
2022/09/10 07:55:35;;;;;;;3.00;1.77;;;17.10;99.90;;;;;;10470826;28;20800;-69
2022/09/10 08:00:37;;;;;;;4.57;1.87;;;17.80;99.90;;;;;;10477288;28;20252;-70
2022/09/10 08:05:38;;;;;;;3.17;1.57;;;18.80;99.90;;;;;;10466483;28;20243;-69
2022/09/10 08:10:39;;;;;;;3.77;1.60;;;19.20;99.90;;;;;;10477353;28;20248;-70
2022/09/10 08:15:46;;;;;;;3.23;1.60;;;19.20;99.90;;;;;;10471293;28;20226;-69
2022/09/10 08:20:53;;;;;;;3.80;1.40;;;19.30;99.90;;;;;;10478262;28;20221;-69
2022/09/10 08:25:55;;;;;;;6.10;1.77;;;19.50;99.90;;;;;;10474202;28;20306;-70
2022/09/10 08:31:06;;;;;;;3.60;1.63;;;19.90;99.90;;;;;;10469310;28;20249;-69
2022/09/10 08:36:09;;;;;;;6.13;2.10;;;20.20;99.90;;;;;;10469100;28;20222;-69
2022/09/10 08:41:35;;;;;;;5.60;1.90;;;20.20;99.90;;;;;;10473938;28;20228;-69
2022/09/10 08:46:44;;;;;;;4.67;1.90;;;19.80;99.90;;;;;;10460790;28;20587;-70
2022/09/10 08:51:54;;;;;;;5.30;1.40;;;19.60;99.90;;;;;;10475456;28;20766;-69
2022/09/10 08:56:58;;;;;;;8.97;2.20;;;19.40;99.90;;;;;;10472659;28;20598;-70
2022/09/10 09:02:16;;;;;;;5.90;1.60;;;19.30;99.90;;;;;;10468764;28;20318;-69
2022/09/10 09:07:19;;;;;;;4.13;1.80;;;19.20;99.90;;;;;;10474098;28;20225;-68
2022/09/10 09:13:04;;;;;;;4.33;1.83;;;19.10;99.90;;;;;;10470468;28;20265;-69
2022/09/10 09:18:20;;;;;;;4.60;1.83;;;18.80;99.90;;;;;;10464406;28;20679;-69
2022/09/10 09:23:40;;;;;;;5.97;2.30;;;19.00;99.90;;;;;;10476245;28;20566;-69
2022/09/10 09:28:49;;;;;;;4.13;2.03;;;19.00;99.90;;;;;;10463231;28;20233;-68
2022/09/10 09:33:55;;;;;;;7.77;2.53;;;18.80;99.90;;;;;;10476074;28;20215;-69
2022/09/10 09:38:56;;;;;;;4.30;1.60;;;18.90;99.90;;;;;;10484337;28;20217;-68
2022/09/10 09:44:03;;;;;;;4.80;1.77;;;19.10;99.90;;;;;;10478769;28;20222;-71
2022/09/10 09:49:08;;;;;;;5.60;1.60;;;19.20;99.90;;;;;;10479723;28;20723;-69
2022/09/10 09:54:20;;;;;;;5.37;2.20;;;19.20;99.90;;;;;;10474764;28;20218;-70
2022/09/10 09:59:30;;;;;;;7.80;2.10;;;18.90;99.90;;;;;;10481409;28;20229;-70
2022/09/10 10:04:32;;;;;;;9.10;1.97;;;18.50;99.90;;;;;;10474918;28;20213;-69
2022/09/10 10:09:39;;;;;;;4.70;1.67;;;18.40;99.90;;;;;;10464027;28;20310;-70
2022/09/10 10:14:42;;;;;;;6.83;2.10;;;18.30;99.90;;;;;;10480357;28;20596;-69
2022/09/10 10:19:59;;;;;;;7.57;2.00;;;18.20;99.90;;;;;;10481585;28;20304;-69
2022/09/10 10:25:02;;;;;;;5.97;2.03;;;18.30;99.90;;;;;;10477936;28;20220;-69
2022/09/10 10:30:11;;;;;;;4.70;1.67;;;18.30;99.90;;;;;;10472757;28;20229;-69
2022/09/10 10:35:43;;;;;;;6.70;2.13;;;18.30;99.90;;;;;;10475219;28;20214;-69
2022/09/10 10:40:55;;;;;;;5.87;1.60;;;18.30;99.90;;;;;;10468706;28;20220;-69
2022/09/10 10:46:12;;;;;;;5.87;1.57;;;18.50;99.90;;;;;;10476248;28;20223;-69
2022/09/10 10:51:16;;;;;;;7.33;1.90;;;18.60;99.90;;;;;;10478915;28;20300;-69
2022/09/10 10:56:24;;;;;;;8.17;2.20;;;18.60;99.90;;;;;;10479080;28;20217;-69
2022/09/10 11:01:40;;;;;;;9.87;2.60;;;18.20;99.90;;;;;;10473950;28;20631;-69
2022/09/10 11:06:46;;;;;;;4.57;2.00;;;17.80;99.90;;;;;;10461055;28;20218;-69
2022/09/10 11:12:19;;;;;;;4.63;1.83;;;17.70;99.90;;;;;;10473695;28;20224;-68
2022/09/10 11:17:19;;;;;;;4.23;1.70;;;17.80;99.90;;;;;;10463270;28;20225;-70
2022/09/10 11:22:28;;;;;;;4.13;1.60;;;18.20;99.90;;;;;;10477637;28;20215;-68
2022/09/10 11:27:45;;;;;;;7.67;1.97;;;18.40;99.90;;;;;;10473040;28;20230;-68
2022/09/10 11:33:22;;;;;;;6.43;1.90;;;18.30;99.90;;;;;;10460014;28;20220;-68
2022/09/10 11:38:42;;;;;;;5.80;2.10;;;18.10;99.90;;;;;;10461451;28;20225;-69
2022/09/10 11:43:42;;;;;;;3.57;1.70;;;18.20;99.90;;;;;;10465118;28;20226;-69
2022/09/10 11:48:52;;;;;;;3.57;1.70;;;18.90;99.90;;;;;;10476377;28;20650;-69
2022/09/10 11:53:54;;;;;;;4.63;1.70;;;19.80;99.90;;;;;;10473046;28;20218;-68
2022/09/10 11:59:22;;;;;;;4.37;1.47;;;20.30;99.90;;;;;;10474672;28;20860;-69
2022/09/10 12:04:53;;;;;;;4.83;1.77;;;20.10;99.90;;;;;;10477267;28;20218;-69
2022/09/10 12:10:18;;;;;;;4.17;1.53;;;20.00;99.90;;;;;;10470464;28;20245;-68
2022/09/10 12:15:25;;;;;;;4.13;1.47;;;20.70;99.90;;;;;;10472294;28;20293;-68
2022/09/10 12:20:31;;;;;;;5.43;1.97;;;21.10;99.90;;;;;;10476926;28;20217;-69
2022/09/10 12:25:32;;;;;;;3.33;1.10;;;21.20;99.90;;;;;;10471832;28;20217;-69
2022/09/10 12:30:36;;;;;;;2.40;0.83;;;21.10;99.90;;;;;;10461107;28;20284;-69
2022/09/10 12:35:42;;;;;;;1.77;0.80;;;21.10;99.90;;;;;;10467903;28;20706;-70
2022/09/10 12:40:48;;;;;;;3.13;0.60;;;21.10;99.90;;;;;;10469202;28;20289;-68
2022/09/10 12:46:06;;;;;;;2.20;0.43;;;21.40;99.90;;;;;;10474261;28;20627;-69
2022/09/10 12:51:27;;;;;;;1.57;0.43;;;21.50;99.90;;;;;;10474991;28;20595;-69
2022/09/10 12:56:47;;;;;;;1.53;0.30;;;21.70;99.90;;;;;;10468866;28;20228;-69
2022/09/10 13:01:50;;;;;;;1.97;0.67;;;22.00;99.90;;;;;;10463700;28;20215;-69
2022/09/10 13:07:00;;;;;;;1.87;0.70;;;22.00;99.90;;;;;;10473873;28;20217;-68
2022/09/10 13:12:13;;;;;;;1.60;0.50;;;21.70;99.90;;;;;;10479646;28;20295;-70
2022/09/10 13:17:36;;;;;;;0.73;0.40;;;21.50;99.90;;;;;;10478880;28;20234;-69
2022/09/10 13:23:02;;;;;;;1.13;0.57;;;21.60;99.90;;;;;;10471432;28;20222;-69
2022/09/10 13:28:29;;;;;;;0.80;0.50;;;21.80;99.90;;;;;;10475197;28;20227;-69
2022/09/10 13:33:36;;;;;;;0.77;0.40;;;21.70;99.90;;;;;;10483199;28;20229;-69
2022/09/10 13:38:37;;;;;;;1.23;0.50;;;21.80;99.90;;;;;;10467007;28;20219;-70
2022/09/10 13:43:54;;;;;;;2.73;0.80;;;21.70;99.90;;;;;;10481551;28;20219;-68
2022/09/10 13:49:10;;;;;;;1.73;0.70;;;21.70;99.90;;;;;;10474265;28;20280;-69
2022/09/10 13:54:33;;;;;;;0.87;0.50;;;21.40;99.90;;;;;;10480084;28;20260;-69
2022/09/10 13:59:36;;;;;;;1.13;0.50;;;21.60;99.90;;;;;;10466797;28;20227;-69
2022/09/10 14:04:39;;;;;;;1.70;1.00;;;21.40;99.90;;;;;;10477660;28;20945;-69
2022/09/10 14:09:49;;;;;;;1.63;0.70;;;21.20;99.90;;;;;;10482197;28;20230;-69
2022/09/10 14:14:57;;;;;;;3.53;1.17;;;21.60;99.90;;;;;;10472716;28;20301;-69
2022/09/10 14:20:01;;;;;;;2.17;1.57;;;21.80;99.90;;;;;;10472780;28;20297;-70
2022/09/10 14:25:05;;;;;;;2.23;0.83;;;21.80;99.90;;;;;;10476723;28;20226;-69
2022/09/10 14:30:21;;;;;;;1.03;0.50;;;21.60;99.90;;;;;;10476775;28;20380;-69
2022/09/10 14:35:38;;;;;;;1.17;0.50;;;21.10;99.90;;;;;;10478767;28;20288;-69
2022/09/10 14:40:38;;;;;;;0.57;0.57;;;20.80;99.90;;;;;;10466533;28;20222;-68
2022/09/10 14:45:46;;;;;;;2.57;0.50;;;20.80;99.90;;;;;;10472855;28;20211;-68
2022/09/10 14:50:47;;;;;;;1.00;0.40;;;20.80;99.90;;;;;;10478340;28;20324;-68
2022/09/10 14:55:47;;;;;;;2.80;0.40;;;20.90;99.90;;;;;;10474696;28;20289;-69
2022/09/10 15:00:50;;;;;;;0.80;0.50;;;21.00;99.90;;;;;;10477218;28;20259;-69
2022/09/10 15:05:51;;;;;;;0.77;0.43;;;21.30;99.90;;;;;;10472089;28;20214;-69
2022/09/10 15:10:51;;;;;;;1.80;0.50;;;21.50;99.90;;;;;;10474524;28;20235;-69
2022/09/10 15:15:52;;;;;;;0.70;0.30;;;21.60;99.90;;;;;;10479230;28;20237;-69
2022/09/10 15:20:53;;;;;;;0.30;0.20;;;21.20;99.90;;;;;;10491963;28;20226;-68
2022/09/10 15:25:57;;;;;;;1.23;0.50;;;20.80;99.90;;;;;;10474443;28;20217;-69
2022/09/10 15:30:58;;;;;;;1.43;0.50;;;20.50;99.90;;;;;;10475727;28;20597;-68
2022/09/10 15:35:58;;;;;;;2.27;0.60;;;20.40;99.90;;;;;;10472581;28;20322;-69
2022/09/10 15:41:11;;;;;;;0.83;0.67;;;20.30;99.90;;;;;;10475027;28;20218;-69
2022/09/10 15:46:18;;;;;;;3.17;0.67;;;20.20;99.90;;;;;;10475450;28;20213;-68
2022/09/10 15:51:21;;;;;;;1.80;0.70;;;20.20;99.90;;;;;;10472203;28;20239;-68
2022/09/10 15:56:25;;;;;;;4.73;0.93;;;20.10;99.90;;;;;;10469398;28;20216;-68
2022/09/10 16:01:27;;;;;;;3.47;1.20;;;19.80;99.90;;;;;;10477040;28;20285;-68
2022/09/10 16:06:31;;;;;;;2.13;1.37;;;19.60;99.90;;;;;;10469787;28;20249;-70
2022/09/10 16:11:35;;;;;;;2.43;1.20;;;19.50;99.90;;;;;;10472040;28;20258;-69
2022/09/10 16:16:36;;;;;;;2.43;1.20;;;19.70;99.90;;;;;;10451996;28;20597;-68
2022/09/10 16:21:37;;;;;;;2.03;1.00;;;20.10;99.90;;;;;;10460630;28;20716;-68
2022/09/10 16:26:40;;;;;;;3.80;1.67;;;20.30;99.90;;;;;;10469120;28;20306;-67
2022/09/10 16:31:41;;;;;;;3.60;1.40;;;20.00;99.90;;;;;;10475620;28;20225;-69
2022/09/10 16:36:43;;;;;;;4.03;1.30;;;19.50;99.90;;;;;;10470293;28;20229;-68
2022/09/10 16:41:46;;;;;;;1.17;1.07;;;19.10;99.90;;;;;;10475339;28;20232;-68
2022/09/10 16:46:47;;;;;;;1.30;0.73;;;18.90;99.90;;;;;;10474387;28;20209;-68
2022/09/10 16:51:48;;;;;;;2.27;1.00;;;18.80;99.90;;;;;;10469515;28;20235;-69
2022/09/10 16:56:49;;;;;;;2.53;1.13;;;18.70;99.90;;;;;;10466901;28;20734;-69
2022/09/10 17:01:51;;;;;;;1.67;1.57;;;18.70;99.90;;;;;;10470706;28;20232;-69
2022/09/10 17:06:51;;;;;;;2.27;1.30;;;18.50;99.90;;;;;;10467675;28;20224;-68
2022/09/10 17:11:52;;;;;;;2.53;1.60;;;18.30;99.90;;;;;;10468289;28;20216;-69
2022/09/10 17:16:57;;;;;;;1.27;1.00;;;18.20;99.90;;;;;;10470592;28;20604;-69
2022/09/10 17:21:57;;;;;;;2.03;1.67;;;18.00;99.90;;;;;;10473138;28;20240;-68
2022/09/10 17:26:58;;;;;;;2.43;1.23;;;18.00;99.90;;;;;;10466900;28;20696;-68
2022/09/10 17:31:59;;;;;;;1.33;1.20;;;17.90;99.90;;;;;;10471190;28;20216;-69
2022/09/10 17:37:00;;;;;;;2.80;1.30;;;17.80;99.90;;;;;;10471868;28;20253;-69
2022/09/10 17:42:00;;;;;;;2.70;1.37;;;17.70;99.90;;;;;;10471121;28;20216;-69
2022/09/10 17:47:01;;;;;;;3.67;1.70;;;17.60;99.90;;;;;;10475426;28;20743;-70
2022/09/10 17:52:04;;;;;;;2.87;2.13;;;17.50;99.90;;;;;;10472431;28;20216;-69
2022/09/10 17:57:05;;;;;;;2.47;1.87;;;17.40;99.90;;;;;;10475371;28;20220;-68
2022/09/10 18:02:06;;;;;;;4.50;2.00;;;17.30;99.90;;;;;;10482443;28;20219;-69
2022/09/10 18:07:07;;;;;;;2.93;1.90;;;17.30;99.90;;;;;;10475671;28;20220;-70
2022/09/10 18:12:07;;;;;;;2.40;2.10;;;17.30;99.90;;;;;;10474288;28;20265;-69
2022/09/10 18:17:08;;;;;;;3.93;2.83;;;17.20;99.90;;;;;;10479448;28;20341;-69
2022/09/10 18:22:09;;;;;;;7.73;3.30;;;17.20;99.90;;;;;;10475560;28;20378;-69
2022/09/10 18:27:09;;;;;;;5.13;3.20;;;17.20;99.90;;;;;;10478340;28;20305;-69
2022/09/10 18:32:10;;;;;;;5.20;3.10;;;17.20;99.90;;;;;;10480597;28;20303;-69
2022/09/10 18:37:12;;;;;;;3.70;3.23;;;17.10;99.90;;;;;;10473958;28;20310;-69
2022/09/10 18:42:12;;;;;;;8.17;3.00;;;17.00;99.90;;;;;;10474033;28;20303;-70
2022/09/10 18:47:13;;;;;;;4.17;2.93;;;17.00;99.90;;;;;;10477038;28;20322;-68
2022/09/10 18:52:15;;;;;;;4.73;3.00;;;17.00;99.90;;;;;;10479182;28;20219;-68
2022/09/10 18:57:15;;;;;;;3.77;2.77;;;16.90;99.90;;;;;;10474484;28;20251;-69
2022/09/10 19:02:19;;;;;;;3.60;2.93;;;16.80;99.90;;;;;;10473468;28;21003;-68
2022/09/10 19:07:20;;;;;;;7.33;2.70;;;16.70;99.90;;;;;;10478744;28;20227;-70
2022/09/10 19:12:21;;;;;;;5.70;3.50;;;16.70;99.90;;;;;;10471612;28;20261;-69
2022/09/10 19:17:21;;;;;;;5.43;3.50;;;16.60;99.90;;;;;;10471405;28;20273;-70
2022/09/10 19:22:22;;;;;;;3.93;3.60;;;16.50;99.90;;;;;;10471118;28;20323;-69
2022/09/10 19:27:23;;;;;;;5.37;3.73;;;16.50;99.90;;;;;;10476987;28;20235;-69
2022/09/10 19:32:23;;;;;;;8.53;4.10;;;16.50;99.90;;;;;;10473512;28;20288;-69
2022/09/10 19:37:24;;;;;;;6.83;3.93;;;16.40;99.90;;;;;;10478381;28;20700;-69
2022/09/10 19:42:25;;;;;;;6.27;3.70;;;16.40;99.90;;;;;;10471099;28;20219;-69
2022/09/10 19:47:25;;;;;;;5.87;3.80;;;16.40;99.90;;;;;;10477977;28;20590;-69
2022/09/10 19:52:26;;;;;;;4.13;3.50;;;16.40;99.90;;;;;;10478242;28;20219;-69
2022/09/10 19:57:27;;;;;;;5.73;3.60;;;16.30;99.90;;;;;;10471866;28;20310;-69
2022/09/10 20:02:28;;;;;;;5.03;3.60;;;16.30;99.90;;;;;;10471215;28;20246;-70
2022/09/10 20:07:32;;;;;;;5.37;3.43;;;16.30;99.90;;;;;;10472545;28;20228;-69
2022/09/10 20:12:32;;;;;;;3.63;3.33;;;16.30;99.90;;;;;;10470279;28;20283;-68
2022/09/10 20:17:33;;;;;;;3.40;3.10;;;16.20;99.90;;;;;;10476658;28;20250;-69
2022/09/10 20:22:34;;;;;;;7.10;3.60;;;16.30;99.90;;;;;;10460569;28;20228;-69
2022/09/10 20:27:35;;;;;;;5.87;3.40;;;16.30;99.90;;;;;;10476633;28;20235;-68
2022/09/10 20:32:35;;;;;;;5.63;3.30;;;16.40;99.90;;;;;;10469252;28;20243;-69
2022/09/10 20:37:36;;;;;;;7.10;3.83;;;16.30;99.90;;;;;;10477038;28;20242;-68
2022/09/10 20:42:38;;;;;;;6.97;4.10;;;16.30;99.90;;;;;;10470121;28;20254;-70
2022/09/10 20:47:41;;;;;;;5.80;3.57;;;16.30;99.90;;;;;;10475556;28;20224;-70
2022/09/10 20:52:43;;;;;;;7.40;4.37;;;16.40;99.90;;;;;;10476089;28;20690;-69
2022/09/10 20:57:44;;;;;;;6.47;3.80;;;16.40;99.90;;;;;;10470811;28;20223;-69
2022/09/10 21:02:45;;;;;;;6.30;3.63;;;16.30;99.90;;;;;;10468537;28;20768;-70
2022/09/10 21:07:46;;;;;;;4.70;3.67;;;16.30;99.90;;;;;;10468431;28;20248;-69
2022/09/10 21:12:46;;;;;;;3.93;3.10;;;16.40;99.90;;;;;;10472088;28;20247;-69
2022/09/10 21:17:47;;;;;;;5.50;3.37;;;16.40;99.90;;;;;;10469333;28;20215;-69
2022/09/10 21:22:51;;;;;;;6.50;2.53;;;16.40;99.90;;;;;;10474460;28;20218;-69
2022/09/10 21:27:53;;;;;;;4.00;2.10;;;16.40;99.90;;;;;;10467233;28;20223;-69
2022/09/10 21:32:53;;;;;;;2.73;1.63;;;16.50;99.90;;;;;;10493119;28;20246;-69
2022/09/10 21:37:54;;;;;;;2.03;1.67;;;16.50;99.90;;;;;;10480426;28;20227;-69
2022/09/10 21:42:55;;;;;;;1.70;1.60;;;16.40;99.90;;;;;;10476556;28;20300;-68
2022/09/10 21:47:55;;;;;;;2.23;1.93;;;16.40;99.90;;;;;;10476083;28;20249;-69
2022/09/10 21:52:57;;;;;;;2.73;1.40;;;16.30;99.90;;;;;;10479554;28;20224;-69
2022/09/10 21:57:58;;;;;;;2.33;1.57;;;16.30;99.90;;;;;;10473399;28;20219;-69
2022/09/10 22:02:59;;;;;;;4.30;1.70;;;16.30;99.90;;;;;;10479841;28;20239;-70
2022/09/10 22:08:00;;;;;;;2.87;1.77;;;16.20;99.90;;;;;;10477566;28;20229;-69
2022/09/10 22:13:00;;;;;;;2.77;1.80;;;16.20;99.90;;;;;;10481743;28;20599;-69
2022/09/10 22:18:01;;;;;;;2.23;1.47;;;16.20;99.90;;;;;;10470831;28;20625;-69
2022/09/10 22:23:02;;;;;;;2.67;1.83;;;16.20;99.90;;;;;;10476483;28;20242;-68
2022/09/10 22:28:06;;;;;;;3.33;2.00;;;16.20;99.90;;;;;;10477720;28;20228;-69
2022/09/10 22:33:07;;;;;;;3.27;1.90;;;16.20;99.90;;;;;;10474326;28;20725;-68
2022/09/10 22:38:08;;;;;;;3.10;1.80;;;16.20;99.90;;;;;;10478910;28;20215;-69
2022/09/10 22:43:09;;;;;;;4.27;2.00;;;16.20;99.90;;;;;;10474888;28;20215;-69
2022/09/10 22:48:09;;;;;;;2.77;2.00;;;16.20;99.90;;;;;;10477288;28;20214;-70
2022/09/10 22:53:10;;;;;;;2.80;2.17;;;16.20;99.90;;;;;;10467975;28;20204;-69
2022/09/10 22:58:11;;;;;;;3.13;2.10;;;16.20;99.90;;;;;;10473991;28;20208;-70
2022/09/10 23:03:11;;;;;;;2.73;1.83;;;16.20;99.90;;;;;;10493181;28;20814;-69
2022/09/10 23:08:12;;;;;;;3.30;2.23;;;16.20;99.90;;;;;;10475235;28;20712;-68
2022/09/10 23:13:13;;;;;;;4.97;2.37;;;16.20;99.90;;;;;;10477479;28;20253;-68
2022/09/10 23:18:13;;;;;;;5.20;2.53;;;16.20;99.90;;;;;;10475987;28;20214;-68
2022/09/10 23:23:14;;;;;;;3.17;2.43;;;16.20;99.90;;;;;;10481185;28;20298;-68
2022/09/10 23:28:15;;;;;;;2.60;2.40;;;16.20;99.90;;;;;;10478303;28;20309;-70
2022/09/10 23:33:15;;;;;;;5.60;2.63;;;16.20;99.90;;;;;;10465764;28;20278;-68
2022/09/10 23:38:17;;;;;;;3.90;2.87;;;16.10;99.90;;;;;;10477643;28;20219;-68
2022/09/10 23:43:17;;;;;;;3.50;2.80;;;16.10;99.90;;;;;;10474061;28;20268;-68
2022/09/10 23:48:22;;;;;;;5.87;2.50;;;16.20;99.90;;;;;;10477705;28;20283;-69
2022/09/10 23:53:24;;;;;;;2.40;2.20;;;16.20;99.90;;;;;;10472372;28;20222;-69
2022/09/10 23:58:25;;;;;;;3.23;2.67;;;16.20;99.90;;;;;;10476985;28;20220;-69
